Time;durP1;ratioP1;P1;durP2;ratioP2;P2;SDS_P1;SDS_P2;PMS_P1;PMS_P2;Temp;Humidity;BMP_temperature;BMP_pressure;BME280_temperature;BME280_humidity;BME280_pressure;Samples;Min_cycle;Max_cycle;Signal;HPM_P1;HPM_P2
2022/11/05 00:10:36;;;;;;;7.93;4.50;;;;;;;8.76;100.00;100145.03;5044147;28;20501;-80
2022/11/05 00:18:37;;;;;;;13.20;7.50;;;;;;;8.65;100.00;100147.28;5045366;28;20053;-85
2022/11/05 00:21:03;;;;;;;8.13;5.60;;;;;;;8.54;100.00;100131.03;5047458;28;20049;-79
2022/11/05 00:26:15;;;;;;;7.93;4.40;;;;;;;8.66;100.00;100154.25;5040671;28;20037;-81
2022/11/05 00:28:43;;;;;;;8.85;5.20;;;;;;;8.53;100.00;100124.03;5048091;28;20055;-82
2022/11/05 00:31:12;;;;;;;7.82;4.65;;;;;;;8.63;100.00;100133.28;5047962;28;20049;-80
2022/11/05 00:33:40;;;;;;;6.65;4.10;;;;;;;8.65;100.00;100147.28;5040241;28;20581;-76
2022/11/05 00:36:08;;;;;;;8.90;4.47;;;;;;;8.62;100.00;100167.66;5046420;28;20497;-81
2022/11/05 00:38:35;;;;;;;8.90;4.43;;;;;;;8.60;100.00;100165.09;5049205;28;20052;-79
2022/11/05 00:41:02;;;;;;;7.00;4.35;;;;;;;8.62;100.00;100167.66;5051338;28;20047;-81
2022/11/05 00:46:14;;;;;;;9.10;5.13;;;;;;;8.69;100.00;100169.97;5049459;28;20051;-82
2022/11/05 00:51:26;;;;;;;9.88;4.65;;;;;;;8.79;100.00;100171.31;5054500;28;20097;-80
2022/11/05 00:53:52;;;;;;;10.23;5.32;;;;;;;8.76;100.00;100168.78;5043331;28;20045;-79
2022/11/05 00:56:19;;;;;;;10.90;5.40;;;;;;;8.79;100.00;100179.22;5051065;28;20045;-82
2022/11/05 00:58:45;;;;;;;9.25;5.05;;;;;;;8.65;100.00;100163.13;5063639;28;20120;-75
2022/11/05 01:01:12;;;;;;;9.82;5.32;;;;;;;8.67;100.00;100160.38;5060899;28;20504;-73
2022/11/05 01:03:39;;;;;;;8.02;5.10;;;;;;;8.85;100.00;100183.34;5054200;28;20049;-81
2022/11/05 01:06:15;;;;;;;10.25;5.45;;;;;;;8.90;100.00;100189.31;5053886;28;20059;-79
2022/11/05 01:08:43;;;;;;;9.85;5.65;;;;;;;8.90;100.00;100184.03;5055282;28;20147;-84
2022/11/05 01:11:31;;;;;;;9.77;5.40;;;;;;;8.74;100.00;100168.00;5046194;28;20064;-83
2022/11/05 01:14:08;;;;;;;9.00;5.55;;;;;;;8.73;100.00;100166.28;5045193;28;20045;-83
2022/11/05 01:16:35;;;;;;;9.98;5.15;;;;;;;8.86;100.00;100200.91;5052141;28;20045;-80
2022/11/05 01:19:04;;;;;;;10.00;5.57;;;;;;;8.93;100.00;100198.88;5054593;28;20148;-83
2022/11/05 01:21:31;;;;;;;9.43;5.35;;;;;;;8.95;100.00;100203.19;5051364;28;20548;-80
2022/11/05 01:23:58;;;;;;;12.38;5.70;;;;;;;8.92;100.00;100207.72;5038724;28;20422;-79
2022/11/05 01:26:25;;;;;;;10.80;5.63;;;;;;;8.88;100.00;100207.00;5044118;28;20037;-82
2022/11/05 01:28:53;;;;;;;14.63;6.47;;;;;;;8.75;100.00;100195.25;5044796;28;20048;-80
2022/11/05 01:31:21;;;;;;;10.75;5.97;;;;;;;8.87;100.00;100209.69;5049484;28;20045;-83
2022/11/05 01:33:48;;;;;;;11.95;6.25;;;;;;;8.85;100.00;100200.97;5035292;28;20080;-80
2022/11/05 01:36:16;;;;;;;12.35;5.93;;;;;;;8.88;100.00;100192.94;5043058;28;20102;-78
2022/11/05 01:38:43;;;;;;;9.52;5.72;;;;;;;8.98;100.00;100207.44;5048059;28;20412;-81
2022/11/05 01:41:10;;;;;;;10.50;5.13;;;;;;;8.96;100.00;100211.97;5049279;28;20049;-79
2022/11/05 01:43:55;;;;;;;8.77;5.38;;;;;;;8.93;100.00;100220.88;5043093;28;20083;-80
2022/11/05 01:46:28;;;;;;;13.88;5.25;;;;;;;8.87;100.00;100226.41;5042626;28;20045;-80
2022/11/05 01:48:59;;;;;;;9.02;5.63;;;;;;;8.83;100.00;100224.81;5044762;28;20147;-78
2022/11/05 01:51:29;;;;;;;9.60;5.50;;;;;;;8.92;100.00;100218.28;5040176;28;20056;-79
2022/11/05 01:53:58;;;;;;;9.82;5.43;;;;;;;8.79;100.00;100195.06;5046870;28;20041;-73
2022/11/05 01:56:34;;;;;;;10.65;6.60;;;;;;;8.75;100.00;100198.75;5048147;28;20183;-74
2022/11/05 01:59:19;;;;;;;10.60;6.13;;;;;;;8.88;100.00;100227.25;5056591;28;20041;-76
2022/11/05 02:01:46;;;;;;;10.18;5.60;;;;;;;8.84;100.00;100223.88;5047218;28;20125;-74
2022/11/05 02:04:22;;;;;;;10.82;6.20;;;;;;;8.86;100.00;100234.38;5041600;28;20044;-72
2022/11/05 02:06:48;;;;;;;11.18;5.57;;;;;;;8.71;100.00;100199.78;5052318;28;20053;-79
2022/11/05 02:09:27;;;;;;;11.43;5.85;;;;;;;8.88;100.00;100233.41;5051008;28;20056;-75
2022/11/05 02:11:54;;;;;;;8.60;5.10;;;;;;;8.72;100.00;100212.06;5049096;28;20049;-78
2022/11/05 02:14:20;;;;;;;13.18;5.10;;;;;;;8.84;100.00;100234.44;5038804;28;20592;-78
2022/11/05 02:16:54;;;;;;;7.60;4.78;;;;;;;8.86;100.00;100237.03;5036887;28;20057;-80
2022/11/05 02:19:42;;;;;;;10.27;5.00;;;;;;;8.69;100.00;100212.19;5052237;28;20088;-81
2022/11/05 02:22:24;;;;;;;10.88;5.80;;;;;;;8.92;100.00;100239.41;5052172;28;20045;-79
2022/11/05 02:25:12;;;;;;;9.40;5.63;;;;;;;8.95;100.00;100237.50;5043345;28;20049;-79
2022/11/05 02:28:03;;;;;;;12.23;6.25;;;;;;;8.97;100.00;100243.56;5048047;28;20053;-79
2022/11/05 02:31:00;;;;;;;10.00;5.82;;;;;;;8.98;100.00;100213.59;5047557;28;20051;-71
2022/11/05 02:33:38;;;;;;;11.32;6.28;;;;;;;9.13;100.00;100239.34;5040958;28;20056;-71
2022/11/05 02:36:16;;;;;;;11.10;5.55;;;;;;;9.02;100.00;100216.97;5044047;28;20409;-76
2022/11/05 02:39:23;;;;;;;13.23;5.85;;;;;;;9.03;100.00;100221.31;5049111;28;20064;-76
2022/11/05 02:42:11;;;;;;;9.27;5.97;;;;;;;9.11;100.00;100243.00;5049005;28;20096;-76
2022/11/05 02:44:41;;;;;;;10.20;5.88;;;;;;;9.12;100.00;100248.22;5039042;28;20067;-74
2022/11/05 02:47:26;;;;;;;11.02;5.88;;;;;;;9.11;100.00;100245.63;5047510;28;20045;-79
2022/11/05 02:50:02;;;;;;;9.32;6.10;;;;;;;9.03;100.00;100259.16;5051603;28;20052;-80
2022/11/05 02:52:56;;;;;;;9.75;6.40;;;;;;;8.96;100.00;100254.22;5047930;28;20053;-84
2022/11/05 02:55:37;;;;;;;14.70;6.45;;;;;;;8.81;100.00;100239.88;5029791;28;20047;-85
2022/11/05 02:58:04;;;;;;;12.50;7.05;;;;;;;8.93;100.00;100259.63;5049765;28;20067;-82
2022/11/05 03:00:40;;;;;;;13.40;7.40;;;;;;;8.92;100.00;100268.47;5042894;28;20132;-88
2022/11/05 03:03:30;;;;;;;13.73;7.78;;;;;;;8.87;100.00;100265.16;5044748;28;20059;-81
2022/11/05 03:06:07;;;;;;;15.52;7.97;;;;;;;8.89;100.00;100272.09;5041203;28;20045;-78
2022/11/05 03:08:52;;;;;;;13.88;7.60;;;;;;;8.90;100.00;100279.09;5041105;28;20484;-82
2022/11/05 03:11:25;;;;;;;15.32;7.93;;;;;;;8.91;100.00;100275.53;5041923;28;20048;-88
2022/11/05 03:14:14;;;;;;;14.07;8.20;;;;;;;8.91;100.00;100277.31;5043254;28;20048;-69
2022/11/05 03:16:46;;;;;;;13.98;8.15;;;;;;;8.96;100.00;100278.00;5042063;28;20569;-88
2022/11/05 03:19:23;;;;;;;15.93;8.00;;;;;;;8.98;100.00;100270.84;5048306;28;20695;-87
2022/11/05 03:21:59;;;;;;;13.48;7.22;;;;;;;8.89;100.00;100253.59;5049108;28;20049;-84
2022/11/05 03:24:31;;;;;;;11.15;7.18;;;;;;;9.05;100.00;100288.16;5040144;28;20045;-82
2022/11/05 03:27:04;;;;;;;14.73;7.47;;;;;;;9.06;100.00;100281.94;5044246;28;20489;-82
2022/11/05 03:29:37;;;;;;;12.73;7.30;;;;;;;9.06;100.00;100287.22;5047729;28;20044;-83
2022/11/05 03:32:05;;;;;;;14.27;7.82;;;;;;;8.96;100.00;100262.16;5050616;28;20041;-80
2022/11/05 03:34:58;;;;;;;15.52;8.13;;;;;;;9.10;100.00;100292.31;5041771;28;20560;-84
2022/11/05 03:37:27;;;;;;;14.25;7.72;;;;;;;8.86;100.00;100256.38;5055299;28;20139;-83
2022/11/05 03:39:58;;;;;;;12.55;7.22;;;;;;;9.06;100.00;100303.06;5047532;28;20128;-76
2022/11/05 03:42:29;;;;;;;16.23;7.95;;;;;;;9.02;100.00;100301.47;5062246;28;20112;-84
2022/11/05 03:44:59;;;;;;;11.65;7.28;;;;;;;9.07;100.00;100303.03;5044561;28;20048;-82
2022/11/05 03:47:31;;;;;;;13.40;7.97;;;;;;;9.07;100.00;100307.44;5041987;28;20081;-79
2022/11/05 03:50:13;;;;;;;13.38;7.20;;;;;;;9.08;100.00;100311.81;5051643;28;20873;-76
2022/11/05 03:52:47;;;;;;;14.60;7.43;;;;;;;9.10;100.00;100312.59;5048000;28;20144;-83
2022/11/05 03:55:14;;;;;;;17.70;7.93;;;;;;;9.16;100.00;100320.25;5038406;28;20048;-71
2022/11/05 03:57:47;;;;;;;14.05;7.53;;;;;;;9.12;100.00;100319.53;5043620;28;20055;-78
2022/11/05 04:00:14;;;;;;;17.80;8.40;;;;;;;9.06;100.00;100316.28;5054291;28;20041;-82
2022/11/05 04:02:41;;;;;;;13.85;8.38;;;;;;;8.95;100.00;100302.69;5043320;28;20056;-86
2022/11/05 04:05:08;;;;;;;15.40;9.77;;;;;;;9.01;100.00;100320.88;5046692;28;20136;-76
2022/11/05 04:13:24;;;;;;;23.15;12.00;;;;;;;8.83;100.00;100324.28;5059143;28;20048;-80
2022/11/05 04:18:42;;;;;;;22.20;11.98;;;;;;;8.77;100.00;100331.56;5049359;28;20112;-78
2022/11/05 04:24:08;;;;;;;24.50;12.65;;;;;;;8.64;100.00;100317.13;5051278;28;20045;-76
2022/11/05 04:26:39;;;;;;;25.13;13.45;;;;;;;8.76;100.00;100329.84;5041842;28;20045;-82
2022/11/05 04:31:51;;;;;;;27.67;14.73;;;;;;;8.80;100.00;100338.50;5050429;28;20081;-74
2022/11/05 04:34:20;;;;;;;28.13;15.07;;;;;;;8.85;100.00;100340.94;5053321;28;20065;-80
2022/11/05 04:36:48;;;;;;;30.48;15.80;;;;;;;8.82;100.00;100341.91;5049279;28;20180;-84
2022/11/05 04:39:16;;;;;;;28.88;14.98;;;;;;;8.78;100.00;100343.84;5052960;28;20059;-83
2022/11/05 04:41:46;;;;;;;32.67;17.77;;;;;;;8.74;100.00;100354.56;5050973;28;20057;-81
2022/11/05 04:44:16;;;;;;;35.67;19.10;;;;;;;8.62;100.00;100352.44;5055794;28;20059;-79
2022/11/05 04:46:42;;;;;;;33.70;18.93;;;;;;;8.54;100.00;100354.50;5048668;28;20075;-83
2022/11/05 04:49:09;;;;;;;31.00;17.83;;;;;;;8.52;100.00;100369.53;5058186;28;20049;-82
2022/11/05 04:51:36;;;;;;;36.20;18.92;;;;;;;8.55;100.00;100357.06;5059873;28;20161;-84
2022/11/05 04:54:02;;;;;;;31.17;17.63;;;;;;;8.61;100.00;100361.25;5055047;28;20068;-78
2022/11/05 04:56:29;;;;;;;38.78;18.40;;;;;;;8.67;100.00;100367.16;5047784;28;20553;-77
2022/11/05 04:58:55;;;;;;;36.08;18.90;;;;;;;8.62;100.00;100361.22;5050150;28;20053;-71
2022/11/05 05:01:23;;;;;;;33.08;18.88;;;;;;;8.61;100.00;100366.53;5054025;28;20064;-78
2022/11/05 05:03:52;;;;;;;35.42;19.00;;;;;;;8.56;100.00;100363.22;5046426;28;20065;-83
2022/11/05 05:06:19;;;;;;;38.95;19.83;;;;;;;8.49;100.00;100372.31;5037720;28;20052;-83
2022/11/05 05:08:47;;;;;;;38.22;20.45;;;;;;;8.42;100.00;100369.91;5047433;28;20690;-83
2022/11/05 05:11:16;;;;;;;42.10;20.48;;;;;;;8.41;100.00;100376.09;5062017;28;20124;-85
2022/11/05 05:13:43;;;;;;;34.67;18.83;;;;;;;8.41;100.00;100381.38;5050177;28;20049;-80
2022/11/05 05:16:20;;;;;;;36.50;19.50;;;;;;;8.33;100.00;100350.94;5033448;28;20244;-81
2022/11/05 05:18:47;;;;;;;39.67;19.67;;;;;;;8.55;100.00;100374.69;5057344;28;20063;-80
2022/11/05 05:24:02;;;;;;;40.80;20.58;;;;;;;8.56;100.00;100374.63;5053045;28;20455;-80
2022/11/05 05:26:28;;;;;;;37.10;19.38;;;;;;;8.50;100.00;100374.84;5045445;28;20076;-80
2022/11/05 05:28:55;;;;;;;36.88;18.98;;;;;;;8.48;100.00;100382.00;5054206;28;20044;-84
2022/11/05 05:31:22;;;;;;;38.92;19.50;;;;;;;8.50;100.00;100380.13;5050892;28;20541;-83
2022/11/05 05:33:52;;;;;;;41.58;20.60;;;;;;;8.55;100.00;100388.75;5036307;28;20047;-82
2022/11/05 05:36:20;;;;;;;35.72;18.50;;;;;;;8.55;100.00;100385.25;5048001;28;20037;-76
2022/11/05 05:38:47;;;;;;;31.23;18.10;;;;;;;8.55;100.00;100393.16;5056574;28;20054;-74
2022/11/05 05:41:14;;;;;;;36.10;18.70;;;;;;;8.34;100.00;100365.84;5052277;28;20041;-82
2022/11/05 05:43:41;;;;;;;37.45;19.67;;;;;;;8.48;100.00;100399.63;5053082;28;20501;-83
2022/11/05 05:46:11;;;;;;;39.78;20.55;;;;;;;8.44;100.00;100406.78;5042694;28;20053;-85
2022/11/05 05:48:39;;;;;;;40.45;20.40;;;;;;;8.42;100.00;100413.91;5047059;28;20136;-85
2022/11/05 05:51:08;;;;;;;39.15;19.33;;;;;;;8.39;100.00;100414.88;5056388;28;20052;-73
2022/11/05 05:53:35;;;;;;;36.13;19.30;;;;;;;8.47;100.00;100419.88;5056815;28;20112;-81
2022/11/05 05:56:03;;;;;;;39.22;20.27;;;;;;;8.52;100.00;100425.81;5039973;28;20064;-76
2022/11/05 05:58:32;;;;;;;34.95;18.65;;;;;;;8.56;100.00;100413.38;5051307;28;20049;-84
2022/11/05 06:01:01;;;;;;;37.45;19.40;;;;;;;8.63;100.00;100425.41;5051152;28;20132;-80
2022/11/05 06:03:27;;;;;;;37.25;18.52;;;;;;;8.65;100.00;100424.44;5043320;28;20048;-77
2022/11/05 06:05:59;;;;;;;43.65;21.88;;;;;;;8.62;100.00;100421.91;5047318;28;20057;-81
2022/11/05 06:08:26;;;;;;;37.30;20.73;;;;;;;8.59;100.00;100435.22;5055845;28;20120;-77
2022/11/05 06:10:52;;;;;;;33.65;18.63;;;;;;;8.37;100.00;100406.13;5055097;28;20115;-76
2022/11/05 06:13:19;;;;;;;43.60;20.48;;;;;;;8.59;100.00;100440.50;5051575;28;20055;-75
2022/11/05 06:15:45;;;;;;;35.95;19.17;;;;;;;8.46;100.00;100409.38;5043396;28;20038;-80
2022/11/05 06:18:12;;;;;;;37.70;19.60;;;;;;;8.72;100.00;100444.41;5047382;28;20101;-81
2022/11/05 06:20:39;;;;;;;37.22;19.42;;;;;;;8.77;100.00;100454.78;5054391;28;20049;-77
2022/11/05 06:23:06;;;;;;;31.00;17.23;;;;;;;8.61;100.00;100420.19;5053677;28;20059;-80
2022/11/05 06:25:33;;;;;;;31.17;16.58;;;;;;;8.66;100.00;100433.19;5044685;28;20065;-73
2022/11/05 06:28:06;;;;;;;31.70;17.20;;;;;;;8.81;100.00;100463.47;5044976;28;20052;-80
2022/11/05 06:30:33;;;;;;;32.90;17.83;;;;;;;8.77;100.00;100468.84;5047536;28;20053;-80
2022/11/05 06:33:04;;;;;;;36.13;18.25;;;;;;;8.76;100.00;100468.91;5046985;28;20052;-74
2022/11/05 06:35:31;;;;;;;35.72;18.92;;;;;;;8.71;100.00;100465.56;5051325;28;20045;-77
2022/11/05 06:37:58;;;;;;;35.63;17.90;;;;;;;8.71;100.00;100471.72;5045894;28;20080;-77
2022/11/05 06:40:25;;;;;;;31.98;17.52;;;;;;;8.67;100.00;100474.50;5048615;28;20045;-80
2022/11/05 06:42:52;;;;;;;33.67;19.05;;;;;;;8.66;100.00;100473.66;5048971;28;20507;-77
2022/11/05 06:45:19;;;;;;;34.63;18.85;;;;;;;8.74;100.00;100481.31;5054004;28;20048;-76
2022/11/05 06:47:45;;;;;;;37.03;19.23;;;;;;;8.54;100.00;100450.38;5034925;28;20056;-80
2022/11/05 06:50:12;;;;;;;40.20;19.85;;;;;;;8.66;100.00;100481.56;5051823;28;20051;-79
2022/11/05 06:52:38;;;;;;;38.95;20.83;;;;;;;8.60;100.00;100494.16;5049107;28;20251;-75
2022/11/05 06:55:07;;;;;;;38.40;19.48;;;;;;;8.55;100.00;100499.59;5046951;28;20045;-70
2022/11/05 06:57:37;;;;;;;30.80;15.65;;;;;;;8.49;100.00;100497.22;5044380;28;20559;-83
2022/11/05 07:00:04;;;;;;;29.70;16.05;;;;;;;8.42;100.00;100506.25;5055347;28;20408;-77
2022/11/05 07:02:33;;;;;;;29.45;15.65;;;;;;;8.21;100.00;100489.38;5047745;28;20052;-75
2022/11/05 07:05:00;;;;;;;33.97;16.50;;;;;;;8.27;100.00;100518.19;5044115;28;20157;-75
2022/11/05 07:07:26;;;;;;;30.70;17.25;;;;;;;8.25;100.00;100521.78;5037882;28;20152;-73
2022/11/05 07:09:53;;;;;;;29.92;16.88;;;;;;;8.16;100.00;100527.41;5043364;28;20049;-69
2022/11/05 07:12:20;;;;;;;32.60;16.50;;;;;;;8.13;100.00;100525.72;5052061;28;20041;-73
2022/11/05 07:14:46;;;;;;;26.88;15.57;;;;;;;8.10;100.00;100531.97;5053354;28;21130;-72
2022/11/05 07:17:16;;;;;;;25.65;14.75;;;;;;;8.14;100.00;100539.78;5040477;28;20493;-72
2022/11/05 07:19:43;;;;;;;28.33;15.03;;;;;;;8.31;100.00;100525.09;5058308;28;20049;-74
2022/11/05 07:22:09;;;;;;;30.48;14.82;;;;;;;8.41;100.00;100533.56;5042921;28;20490;-77
2022/11/05 07:24:36;;;;;;;28.65;14.57;;;;;;;8.51;100.00;100542.00;5053744;28;20052;-79
2022/11/05 07:27:02;;;;;;;25.55;15.13;;;;;;;8.58;100.00;100548.78;5046265;28;20131;-67
2022/11/05 07:29:29;;;;;;;26.08;14.98;;;;;;;8.54;100.00;100537.47;5054019;28;20509;-80
2022/11/05 07:31:56;;;;;;;27.48;16.23;;;;;;;8.62;100.00;100539.84;5043512;28;20498;-78
2022/11/05 07:34:22;;;;;;;27.48;14.55;;;;;;;8.60;100.00;100555.72;5049468;28;20406;-80
2022/11/05 07:36:49;;;;;;;30.30;16.02;;;;;;;8.54;100.00;100563.88;5037523;28;20096;-80
2022/11/05 07:39:15;;;;;;;28.70;15.30;;;;;;;8.59;100.00;100569.84;5054422;28;20066;-78
2022/11/05 07:41:42;;;;;;;27.15;15.20;;;;;;;8.75;100.00;100568.38;5047007;28;20506;-76
2022/11/05 07:44:08;;;;;;;32.00;16.25;;;;;;;8.94;100.00;100570.34;5049203;28;20056;-79
2022/11/05 07:46:35;;;;;;;27.80;13.15;;;;;;;9.14;100.00;100575.72;5048532;28;20088;-77
2022/11/05 07:49:02;;;;;;;23.23;12.95;;;;;;;9.26;100.00;100564.69;5049944;28;20140;-73
2022/11/05 07:51:29;;;;;;;27.30;13.38;;;;;;;9.39;100.00;100573.84;5045385;28;20386;-83
2022/11/05 07:53:55;;;;;;;25.08;13.25;;;;;;;9.45;100.00;100584.16;5058334;28;20124;-76
2022/11/05 07:56:22;;;;;;;21.77;12.23;;;;;;;9.41;100.00;100585.22;5033429;28;20519;-69
2022/11/05 07:58:49;;;;;;;24.63;14.55;;;;;;;9.21;100.00;100565.78;5041562;28;20048;-82
2022/11/05 08:01:15;;;;;;;22.52;12.75;;;;;;;9.32;100.00;100592.63;5051108;28;20536;-77
2022/11/05 08:03:42;;;;;;;26.17;12.48;;;;;;;9.26;100.00;100588.47;5049736;28;20088;-81
2022/11/05 08:06:09;;;;;;;23.35;13.00;;;;;;;9.29;100.00;100601.53;5039448;28;20049;-84
2022/11/05 08:08:35;;;;;;;26.02;13.63;;;;;;;9.25;100.00;100607.03;5048062;28;20158;-74
2022/11/05 08:11:08;;;;;;;28.05;15.30;;;;;;;9.18;100.00;100609.03;5044064;28;20051;-82
2022/11/05 08:13:35;;;;;;;29.17;13.80;;;;;;;9.13;100.00;100595.97;5054838;28;20041;-83
2022/11/05 08:16:03;;;;;;;26.63;13.27;;;;;;;9.25;100.00;100605.25;5045364;28;20391;-74
2022/11/05 08:18:31;;;;;;;27.48;14.40;;;;;;;9.45;100.00;100604.44;5045023;28;20059;-76
2022/11/05 08:21:03;;;;;;;23.92;13.40;;;;;;;9.66;100.00;100608.03;5042665;28;20045;-77
2022/11/05 08:23:30;;;;;;;25.02;12.85;;;;;;;9.82;100.00;100610.00;5049732;28;20045;-81
2022/11/05 08:25:57;;;;;;;22.15;12.27;;;;;;;10.01;100.00;100604.84;5042778;28;20140;-71
2022/11/05 08:28:25;;;;;;;20.77;11.63;;;;;;;10.09;100.00;100608.00;5048329;28;20108;-70
2022/11/05 08:30:53;;;;;;;24.65;12.80;;;;;;;10.14;100.00;100610.47;5054733;28;20163;-72
2022/11/05 08:33:22;;;;;;;23.60;11.65;;;;;;;10.12;100.00;100618.47;5051398;28;20450;-81
2022/11/05 08:35:49;;;;;;;23.67;12.43;;;;;;;10.16;100.00;100620.09;5045216;28;20144;-84
2022/11/05 08:38:18;;;;;;;19.88;10.25;;;;;;;10.09;100.00;100610.66;5042182;28;20059;-78
2022/11/05 08:40:53;;;;;;;22.55;11.35;;;;;;;10.09;100.00;100629.19;5041495;28;20416;-82
2022/11/05 08:43:20;;;;;;;24.70;11.32;;;;;;;9.89;100.00;100623.00;5054179;28;20092;-74
2022/11/05 08:45:47;;;;;;;18.80;10.85;;;;;;;9.81;100.00;100628.59;5047062;28;20074;-72
2022/11/05 08:48:17;;;;;;;23.50;12.02;;;;;;;9.49;100.00;100611.34;5038525;28;20141;-83
2022/11/05 08:50:45;;;;;;;21.15;11.73;;;;;;;9.53;100.00;100638.53;5050768;28;20049;-84
2022/11/05 08:53:12;;;;;;;26.02;12.23;;;;;;;9.56;100.00;100633.13;5044339;28;20468;-80
2022/11/05 08:55:39;;;;;;;21.20;11.52;;;;;;;9.59;100.00;100646.25;5045435;28;20085;-80
2022/11/05 08:58:11;;;;;;;19.67;10.32;;;;;;;9.56;100.00;100628.72;5039404;28;20844;-83
2022/11/05 09:00:38;;;;;;;18.23;10.07;;;;;;;9.79;100.00;100643.66;5050092;28;20053;-70
2022/11/05 09:03:07;;;;;;;18.85;10.85;;;;;;;9.89;100.00;100637.09;5047365;28;20123;-80
2022/11/05 09:05:37;;;;;;;23.23;12.13;;;;;;;9.89;100.00;100615.94;5053088;28;20054;-83
2022/11/05 09:08:08;;;;;;;19.20;12.27;;;;;;;10.11;100.00;100634.41;5047206;28;20040;-80
2022/11/05 09:10:36;;;;;;;22.55;11.73;;;;;;;9.99;100.00;100616.41;5053896;28;20226;-78
2022/11/05 09:13:03;;;;;;;23.17;11.55;;;;;;;10.16;100.00;100638.59;5042885;28;20064;-81
2022/11/05 09:15:30;;;;;;;21.45;10.88;;;;;;;10.08;100.00;100622.16;5064844;28;20104;-77
2022/11/05 09:17:57;;;;;;;17.52;10.07;;;;;;;10.20;100.00;100636.72;5044700;28;20080;-83
2022/11/05 09:20:23;;;;;;;22.33;12.00;;;;;;;10.19;100.00;100637.66;5052140;28;20532;-77
2022/11/05 09:22:51;;;;;;;20.05;10.85;;;;;;;10.06;100.00;100647.84;5044731;28;20832;-83
2022/11/05 09:25:17;;;;;;;21.67;12.15;;;;;;;9.87;100.00;100640.72;5047691;28;20069;-68
2022/11/05 09:27:44;;;;;;;22.83;11.93;;;;;;;9.88;100.00;100653.03;5041548;28;20140;-79
2022/11/05 09:30:12;;;;;;;20.77;11.02;;;;;;;9.79;100.00;100656.88;5054625;28;20124;-81
2022/11/05 09:32:39;;;;;;;24.17;11.98;;;;;;;9.84;100.00;100650.50;5047699;28;20060;-81
2022/11/05 09:35:06;;;;;;;21.23;11.80;;;;;;;9.93;100.00;100648.38;5042031;28;20111;-85
2022/11/05 09:37:33;;;;;;;20.02;11.40;;;;;;;9.80;100.00;100625.09;5041984;28;20075;-71
2022/11/05 09:40:00;;;;;;;20.15;10.38;;;;;;;9.83;100.00;100658.50;5038576;28;20088;-82
2022/11/05 09:42:45;;;;;;;19.48;9.65;;;;;;;9.77;100.00;100664.00;5046086;28;20052;-72
2022/11/05 09:45:19;;;;;;;17.35;10.20;;;;;;;9.75;100.00;100671.16;5044448;28;20064;-81
2022/11/05 09:47:54;;;;;;;24.55;11.63;;;;;;;9.72;100.00;100674.78;5041290;28;20144;-84
2022/11/05 09:50:38;;;;;;;17.63;10.90;;;;;;;9.73;100.00;100673.00;5046530;28;20518;-70
2022/11/05 09:53:05;;;;;;;22.52;11.90;;;;;;;9.86;100.00;100682.19;5048807;28;20589;-76
2022/11/05 09:55:38;;;;;;;23.35;11.88;;;;;;;9.98;100.00;100688.75;5035004;28;20474;-76
2022/11/05 09:58:42;;;;;;;22.83;11.88;;;;;;;9.99;100.00;100680.75;5035723;28;20401;-81
2022/11/05 10:01:34;;;;;;;23.55;12.13;;;;;;;10.30;100.00;100696.28;5044221;28;20057;-82
2022/11/05 10:04:06;;;;;;;19.58;10.93;;;;;;;10.53;100.00;100682.97;5044373;28;20131;-76
2022/11/05 10:06:33;;;;;;;16.52;9.40;;;;;;;10.54;100.00;100691.78;5038229;28;20072;-71
2022/11/05 10:09:32;;;;;;;16.42;9.32;;;;;;;10.42;100.00;100695.78;5041331;28;20051;-76
2022/11/05 10:12:10;;;;;;;16.63;9.52;;;;;;;10.45;100.00;100663.03;5036680;28;20067;-71
2022/11/05 10:14:44;;;;;;;18.45;9.30;;;;;;;10.85;100.00;100693.97;5045033;28;20060;-75
2022/11/05 10:17:23;;;;;;;15.90;8.77;;;;;;;10.68;100.00;100665.56;5035629;28;20067;-71
2022/11/05 10:19:59;;;;;;;17.33;9.35;;;;;;;10.67;100.00;100698.28;5041594;28;20054;-73
2022/11/05 10:22:25;;;;;;;17.00;9.60;;;;;;;10.66;100.00;100701.00;5055308;28;20051;-77
2022/11/05 10:24:53;;;;;;;16.25;9.15;;;;;;;10.73;100.00;100705.94;5041590;28;20140;-78
2022/11/05 10:27:28;;;;;;;17.58;9.93;;;;;;;10.94;100.00;100693.56;5036224;28;20088;-79
2022/11/05 10:29:55;;;;;;;16.73;9.30;;;;;;;10.98;100.00;100673.97;5048204;28;20182;-69
2022/11/05 10:32:31;;;;;;;15.55;8.00;;;;;;;11.11;100.00;100698.13;5044361;28;20507;-72
2022/11/05 10:34:59;;;;;;;16.88;7.82;;;;;;;10.93;100.00;100696.28;5047777;28;20111;-80
2022/11/05 10:37:27;;;;;;;12.70;7.75;;;;;;;10.76;100.00;100697.88;5038254;28;20120;-81
2022/11/05 10:39:56;;;;;;;13.43;7.80;;;;;;;10.78;100.00;100698.66;5046964;28;20057;-76
2022/11/05 10:42:50;;;;;;;14.73;8.02;;;;;;;10.75;100.00;100682.03;5038967;28;20061;-76
2022/11/05 10:45:29;;;;;;;13.38;7.80;;;;;;;10.92;100.00;100706.03;5047006;28;20053;-77
2022/11/05 10:48:02;;;;;;;13.55;7.38;;;;;;;10.83;100.00;100675.50;5039682;28;20057;-80
2022/11/05 10:50:29;;;;;;;13.77;7.22;;;;;;;11.08;100.00;100700.91;5042647;28;20045;-72
2022/11/05 10:52:59;;;;;;;13.60;7.47;;;;;;;11.05;100.00;100701.03;5066049;28;20135;-74
2022/11/05 10:55:35;;;;;;;13.25;7.88;;;;;;;11.04;100.00;100678.13;5058965;28;20074;-77
2022/11/05 10:58:07;;;;;;;10.52;7.40;;;;;;;11.36;100.00;100708.47;5038268;28;20101;-81
2022/11/05 11:00:35;;;;;;;15.13;7.75;;;;;;;11.55;100.00;100701.41;5053215;28;20121;-68
2022/11/05 11:03:04;;;;;;;13.98;7.38;;;;;;;11.67;99.76;100689.38;5054530;28;20053;-75
2022/11/05 11:05:39;;;;;;;12.27;7.03;;;;;;;11.95;96.54;100711.06;5051983;28;20143;-67
2022/11/05 11:08:22;;;;;;;9.00;6.28;;;;;;;11.97;96.42;100703.88;5051840;28;20051;-79
2022/11/05 11:10:56;;;;;;;15.27;7.25;;;;;;;11.95;100.00;100705.78;5066405;28;20060;-83
2022/11/05 11:13:57;;;;;;;14.55;6.05;;;;;;;12.03;100.00;100698.28;5061427;28;20462;-73
2022/11/05 11:16:27;;;;;;;13.07;5.43;;;;;;;12.00;94.53;100702.88;5053247;28;20033;-70
2022/11/05 11:18:56;;;;;;;10.05;5.30;;;;;;;11.91;96.78;100699.75;5041787;28;20079;-80
2022/11/05 11:21:23;;;;;;;9.70;5.30;;;;;;;11.99;94.00;100701.16;5050314;28;20080;-80
2022/11/05 11:24:05;;;;;;;8.57;5.32;;;;;;;12.12;93.49;100697.81;5041349;28;20128;-83
2022/11/05 11:26:36;;;;;;;10.02;5.13;;;;;;;12.23;90.20;100705.28;5049198;28;20116;-71
2022/11/05 11:29:18;;;;;;;9.85;4.13;;;;;;;12.23;92.19;100698.19;5034222;28;20049;-68
2022/11/05 11:31:45;;;;;;;7.10;3.58;;;;;;;12.06;90.98;100695.50;5040601;28;20048;-80
2022/11/05 11:34:20;;;;;;;10.50;3.75;;;;;;;11.63;93.93;100677.22;5043105;28;20053;-81
2022/11/05 11:36:50;;;;;;;9.32;3.05;;;;;;;11.55;93.83;100699.63;5036064;28;20045;-78
2022/11/05 11:39:21;;;;;;;7.88;3.50;;;;;;;11.43;92.17;100688.72;5029156;28;20382;-81
2022/11/05 11:41:53;;;;;;;8.25;3.95;;;;;;;11.39;95.65;100706.56;5044106;28;20040;-77
2022/11/05 11:44:26;;;;;;;6.35;3.55;;;;;;;11.37;95.97;100697.81;5040040;28;20056;-79
2022/11/05 11:46:56;;;;;;;7.00;3.83;;;;;;;11.36;95.32;100690.78;5038254;28;20614;-69
2022/11/05 11:49:48;;;;;;;6.65;4.15;;;;;;;11.32;97.10;100693.66;5035157;28;20060;-79
2022/11/05 11:52:25;;;;;;;9.45;4.25;;;;;;;11.20;94.80;100687.09;5054736;28;20083;-74
2022/11/05 11:54:53;;;;;;;7.65;4.10;;;;;;;11.16;94.60;100670.50;5044950;28;20094;-71
2022/11/05 11:57:26;;;;;;;7.65;3.65;;;;;;;11.33;95.63;100693.59;5037833;28;20045;-81
2022/11/05 11:59:54;;;;;;;8.82;4.60;;;;;;;11.28;97.34;100692.94;5037619;28;20625;-76
2022/11/05 12:03:05;;;;;;;10.40;4.18;;;;;;;11.25;97.14;100690.41;5042276;28;20056;-75
2022/11/05 12:05:59;;;;;;;6.47;3.85;;;;;;;11.13;96.98;100683.03;5048584;28;20045;-78
2022/11/05 12:08:28;;;;;;;8.95;4.40;;;;;;;11.24;97.54;100686.03;5028002;28;20044;-77
2022/11/05 12:11:04;;;;;;;7.88;4.00;;;;;;;11.24;100.00;100689.56;5041586;28;20042;-72
2022/11/05 12:13:55;;;;;;;7.45;4.18;;;;;;;11.22;94.19;100685.25;5038202;28;21713;-76